Time;durP1;ratioP1;P1;durP2;ratioP2;P2;SDS_P1;SDS_P2;PMS_P1;PMS_P2;Temp;Humidity;BMP_temperature;BMP_pressure;BME280_temperature;BME280_humidity;BME280_pressure;Samples;Min_cycle;Max_cycle;Signal;HPM_P1;HPM_P2
2023/10/02 00:01:10;;;;;;;30.05;13.27;;;20.00;99.90;;;;;;4936312;29;20500;-78
2023/10/02 00:03:41;;;;;;;26.10;12.93;;;20.10;99.90;;;;;;4937482;29;20095;-77
2023/10/02 00:06:16;;;;;;;28.40;12.82;;;20.10;99.90;;;;;;4936187;29;20047;-77
2023/10/02 00:08:43;;;;;;;30.25;13.90;;;20.10;99.90;;;;;;4937405;29;20032;-77
2023/10/02 00:11:39;;;;;;;25.50;12.80;;;20.10;99.90;;;;;;4937328;29;20032;-77
2023/10/02 00:14:20;;;;;;;27.38;12.75;;;20.10;99.90;;;;;;4937242;29;20032;-78
2023/10/02 00:17:04;;;;;;;26.55;13.00;;;20.20;99.90;;;;;;4937099;29;20024;-78
2023/10/02 00:19:59;;;;;;;31.90;13.60;;;20.10;99.90;;;;;;4937300;29;20094;-78
2023/10/02 00:22:38;;;;;;;25.20;12.07;;;20.20;99.90;;;;;;4937173;29;20492;-77
2023/10/02 00:25:16;;;;;;;24.60;12.15;;;20.20;99.90;;;;;;4937104;29;20442;-78
2023/10/02 00:27:48;;;;;;;29.30;12.65;;;20.20;99.90;;;;;;4936945;29;20380;-77
2023/10/02 00:30:16;;;;;;;28.58;12.90;;;20.20;99.90;;;;;;4935698;29;20114;-77
2023/10/02 00:32:48;;;;;;;28.58;12.52;;;20.20;99.90;;;;;;4936763;29;20024;-77
2023/10/02 00:35:15;;;;;;;28.10;12.88;;;20.20;99.90;;;;;;4936590;29;20054;-77
2023/10/02 00:37:43;;;;;;;28.23;12.48;;;20.20;99.90;;;;;;4935511;29;20432;-78
2023/10/02 00:40:20;;;;;;;29.85;12.48;;;20.20;99.90;;;;;;4936812;29;20047;-78
2023/10/02 00:42:55;;;;;;;30.23;12.70;;;20.10;99.90;;;;;;4935525;29;20032;-78
2023/10/02 00:45:29;;;;;;;24.85;12.77;;;20.00;99.90;;;;;;4935516;29;20377;-77
2023/10/02 00:50:49;;;;;;;28.45;13.10;;;19.70;99.90;;;;;;4935363;29;20122;-78
2023/10/02 00:53:28;;;;;;;26.90;12.80;;;19.60;99.90;;;;;;4936426;29;20472;-78
2023/10/02 00:55:55;;;;;;;26.67;11.98;;;19.50;99.90;;;;;;4936126;29;20505;-78
2023/10/02 00:58:21;;;;;;;31.67;13.57;;;19.50;99.90;;;;;;4936416;29;20030;-78
2023/10/02 01:00:50;;;;;;;34.42;12.90;;;19.40;99.90;;;;;;4936506;29;20361;-78
2023/10/02 01:03:17;;;;;;;31.13;12.80;;;19.40;99.90;;;;;;4936484;29;20035;-78
2023/10/02 01:05:50;;;;;;;24.33;13.23;;;19.40;99.90;;;;;;4936337;29;20043;-78
2023/10/02 01:08:25;;;;;;;34.30;12.87;;;19.30;99.90;;;;;;4917441;29;20047;-78
2023/10/02 01:10:56;;;;;;;37.63;13.88;;;19.30;99.90;;;;;;4916596;29;20426;-78
2023/10/02 01:13:38;;;;;;;28.20;12.70;;;19.20;99.90;;;;;;4917243;29;20511;-78
2023/10/02 01:16:09;;;;;;;32.22;13.27;;;19.10;99.90;;;;;;4934052;29;20040;-78
2023/10/02 01:18:44;;;;;;;29.23;12.70;;;19.10;99.90;;;;;;4920882;29;20068;-78
2023/10/02 01:21:14;;;;;;;29.63;13.85;;;19.00;99.90;;;;;;4934832;29;20046;-78
2023/10/02 01:24:07;;;;;;;33.20;13.95;;;19.00;99.90;;;;;;4935975;29;20028;-78
2023/10/02 01:26:38;;;;;;;40.45;14.50;;;18.90;99.90;;;;;;4935981;29;20035;-78
2023/10/02 01:29:06;;;;;;;33.03;13.05;;;19.00;99.90;;;;;;4935012;29;20038;-78
2023/10/02 01:31:35;;;;;;;28.83;13.13;;;18.90;99.90;;;;;;4935968;29;20031;-78
2023/10/02 01:34:04;;;;;;;39.17;14.02;;;18.90;99.90;;;;;;4935887;29;20070;-78
2023/10/02 01:36:34;;;;;;;33.50;13.18;;;19.00;99.90;;;;;;4935932;29;20024;-78
2023/10/02 01:39:15;;;;;;;34.75;13.45;;;18.90;99.90;;;;;;4935967;29;20115;-78
2023/10/02 01:41:52;;;;;;;32.03;13.38;;;18.90;99.90;;;;;;4934710;29;20421;-78
2023/10/02 01:44:24;;;;;;;28.48;13.30;;;19.00;99.90;;;;;;4934599;29;20071;-77
2023/10/02 01:46:52;;;;;;;33.58;13.02;;;18.90;99.90;;;;;;4934449;29;20027;-78
2023/10/02 01:49:26;;;;;;;29.95;13.48;;;19.00;99.90;;;;;;4918658;29;20035;-78
2023/10/02 01:51:56;;;;;;;36.47;13.27;;;18.90;99.90;;;;;;4935848;29;20034;-78
2023/10/02 01:54:29;;;;;;;27.42;12.82;;;18.90;99.90;;;;;;4935817;29;20123;-78
2023/10/02 01:56:59;;;;;;;28.85;13.35;;;18.90;99.90;;;;;;4934099;29;20131;-77
2023/10/02 01:59:26;;;;;;;30.30;12.55;;;18.90;99.90;;;;;;4934415;29;20035;-78
2023/10/02 02:01:57;;;;;;;38.08;14.52;;;18.90;99.90;;;;;;4935672;29;20055;-78
2023/10/02 02:04:32;;;;;;;32.13;13.23;;;18.80;99.90;;;;;;4935877;29;20497;-77
2023/10/02 02:07:08;;;;;;;29.40;12.93;;;18.90;99.90;;;;;;4935444;29;20481;-78
2023/10/02 02:09:37;;;;;;;27.92;12.02;;;18.80;99.90;;;;;;4935544;29;20028;-78
2023/10/02 02:12:07;;;;;;;35.63;13.60;;;18.80;99.90;;;;;;4935614;29;20024;-77
2023/10/02 02:14:51;;;;;;;32.60;13.75;;;18.80;99.90;;;;;;4934227;29;20115;-78
2023/10/02 02:17:24;;;;;;;30.87;13.07;;;18.90;99.90;;;;;;4935394;29;20024;-77
2023/10/02 02:19:51;;;;;;;34.08;13.00;;;19.00;99.90;;;;;;4934346;29;20287;-77
2023/10/02 02:22:26;;;;;;;28.38;13.25;;;19.10;99.90;;;;;;4937029;29;20026;-78
2023/10/02 02:24:58;;;;;;;35.42;14.13;;;19.20;99.90;;;;;;4938153;29;20123;-78
2023/10/02 02:27:25;;;;;;;26.45;12.57;;;19.30;99.90;;;;;;4937786;29;20036;-78
2023/10/02 02:29:57;;;;;;;29.45;13.50;;;19.30;99.90;;;;;;4939139;29;20051;-78
2023/10/02 02:32:52;;;;;;;31.88;13.55;;;19.30;99.90;;;;;;4939185;29;20039;-78
2023/10/02 02:35:21;;;;;;;35.25;14.10;;;19.30;99.90;;;;;;4938780;29;20035;-78
2023/10/02 02:37:50;;;;;;;29.80;14.48;;;19.40;99.90;;;;;;4938817;29;20044;-78
2023/10/02 02:40:22;;;;;;;27.70;13.75;;;19.50;99.90;;;;;;4937734;29;20170;-78
2023/10/02 02:42:53;;;;;;;24.52;13.23;;;19.50;99.90;;;;;;4939003;29;20391;-78
2023/10/02 02:45:29;;;;;;;25.02;12.88;;;19.60;99.90;;;;;;4938911;29;20031;-78
2023/10/02 02:48:04;;;;;;;31.75;12.90;;;19.50;99.90;;;;;;4938818;29;20098;-78
2023/10/02 02:50:41;;;;;;;28.15;12.90;;;19.50;99.90;;;;;;4938897;29;20034;-78
2023/10/02 02:53:31;;;;;;;28.00;12.70;;;19.50;99.90;;;;;;4938716;29;20425;-78
2023/10/02 02:56:22;;;;;;;30.45;13.25;;;19.50;99.90;;;;;;4938518;29;20050;-78
2023/10/02 02:58:56;;;;;;;31.38;14.02;;;19.50;99.90;;;;;;4919624;29;20032;-78
2023/10/02 03:01:23;;;;;;;30.70;13.32;;;19.40;99.90;;;;;;4918402;29;20040;-78
2023/10/02 03:03:58;;;;;;;32.10;13.93;;;19.40;99.90;;;;;;4919566;29;20069;-77
2023/10/02 03:06:28;;;;;;;26.95;13.95;;;19.40;99.90;;;;;;4922084;29;20028;-77
2023/10/02 03:08:58;;;;;;;32.53;14.45;;;19.40;99.90;;;;;;4938725;29;20397;-77
2023/10/02 03:11:28;;;;;;;33.28;14.60;;;19.30;99.90;;;;;;4937839;29;20035;-79
2023/10/02 03:14:13;;;;;;;29.48;13.02;;;19.30;99.90;;;;;;4936940;29;20051;-79
2023/10/02 03:16:44;;;;;;;31.35;14.77;;;19.30;99.90;;;;;;4938259;29;20024;-79
2023/10/02 03:19:13;;;;;;;31.48;13.48;;;19.20;99.90;;;;;;4938264;29;20031;-79
2023/10/02 03:21:42;;;;;;;26.90;13.43;;;19.20;99.90;;;;;;4936942;29;20032;-79
2023/10/02 03:24:12;;;;;;;30.48;13.20;;;19.10;99.90;;;;;;4938206;29;20035;-79
2023/10/02 03:26:39;;;;;;;28.23;13.40;;;19.00;99.90;;;;;;4938184;29;20028;-80
2023/10/02 03:29:21;;;;;;;35.95;14.32;;;19.00;99.90;;;;;;4938130;29;20027;-79
2023/10/02 03:31:51;;;;;;;27.15;13.25;;;18.90;99.90;;;;;;4938134;29;20035;-79
2023/10/02 03:34:29;;;;;;;38.13;14.23;;;18.90;99.90;;;;;;4937100;29;20031;-78
2023/10/02 03:37:12;;;;;;;35.20;14.93;;;18.90;99.90;;;;;;4937848;29;20039;-79
2023/10/02 03:39:52;;;;;;;29.00;13.93;;;18.80;99.90;;;;;;4936819;29;20059;-79
2023/10/02 03:42:22;;;;;;;31.23;13.88;;;18.80;99.90;;;;;;4937898;29;20054;-78
2023/10/02 03:44:50;;;;;;;29.83;15.30;;;18.80;99.90;;;;;;4937954;29;20058;-79
2023/10/02 03:47:19;;;;;;;34.95;13.15;;;18.80;99.90;;;;;;4937778;29;20107;-80
2023/10/02 03:49:47;;;;;;;32.50;15.02;;;18.70;99.90;;;;;;4937877;29;20100;-77
2023/10/02 03:52:16;;;;;;;29.70;13.48;;;18.70;99.90;;;;;;4936577;29;20031;-78
2023/10/02 03:54:44;;;;;;;31.08;14.43;;;18.70;99.90;;;;;;4937670;29;20496;-78
2023/10/02 04:00:18;;;;;;;32.20;14.63;;;18.70;99.90;;;;;;4937636;29;20032;-79
2023/10/02 04:02:47;;;;;;;37.45;15.40;;;18.70;99.90;;;;;;4937529;29;20020;-79
2023/10/02 04:05:30;;;;;;;30.60;14.30;;;18.70;99.90;;;;;;4937515;29;20430;-79
2023/10/02 04:08:14;;;;;;;26.92;14.38;;;18.70;99.90;;;;;;4937444;29;20111;-79
2023/10/02 04:10:57;;;;;;;;;;;18.60;99.90;;;;;;4937645;29;20027;-79
2023/10/02 04:13:26;;;;;;;28.23;14.80;;;18.60;99.90;;;;;;4936040;29;19922;-79
2023/10/02 04:15:54;;;;;;;33.10;15.63;;;18.60;99.90;;;;;;4935929;29;20023;-79
2023/10/02 04:21:12;;;;;;;39.10;17.10;;;18.80;99.90;;;;;;4937331;29;20054;-79
2023/10/02 04:23:45;;;;;;;30.30;16.13;;;18.80;99.90;;;;;;4920135;29;20032;-79
2023/10/02 04:26:28;;;;;;;30.08;15.98;;;18.90;99.90;;;;;;4936960;29;20023;-79
2023/10/02 04:31:44;;;;;;;31.50;16.35;;;19.00;99.90;;;;;;4937109;29;20425;-79
2023/10/02 04:34:36;;;;;;;29.40;15.57;;;19.00;99.90;;;;;;4919902;29;20094;-80
2023/10/02 04:37:22;;;;;;;31.55;17.15;;;19.00;99.90;;;;;;4935156;29;20394;-80
2023/10/02 04:42:29;;;;;;;29.42;16.92;;;19.00;99.90;;;;;;4916784;29;20501;-82
2023/10/02 04:45:04;;;;;;;31.20;17.38;;;19.10;99.90;;;;;;4916445;29;20036;-80
2023/10/02 04:47:40;;;;;;;;;;;19.00;99.90;;;;;;4926516;29;20028;-81
2023/10/02 04:55:49;;;;;;;28.25;17.38;;;19.10;99.90;;;;;;4904068;29;20059;-80
2023/10/02 04:58:27;;;;;;;39.80;17.98;;;19.10;99.90;;;;;;4935388;29;20058;-80
2023/10/02 05:03:52;;;;;;;34.80;17.17;;;19.30;99.90;;;;;;4936347;29;20030;-81
2023/10/02 05:06:44;;;;;;;36.22;18.00;;;19.30;99.90;;;;;;4919769;29;20061;-81
2023/10/02 05:11:52;;;;;;;35.72;18.48;;;19.50;99.90;;;;;;4936346;29;20038;-81
2023/10/02 05:14:33;;;;;;;;;;;19.60;99.90;;;;;;4935373;29;20050;-80
2023/10/02 05:17:41;;;;;;;32.42;18.25;;;19.60;99.90;;;;;;4934253;29;19911;-80
2023/10/02 05:20:19;;;;;;;26.03;17.30;;;19.70;99.90;;;;;;4935000;29;20413;-80
2023/10/02 05:22:58;;;;;;;32.97;17.58;;;19.80;99.90;;;;;;4934840;29;20484;-81
2023/10/02 05:25:31;;;;;;;36.95;18.55;;;19.80;99.90;;;;;;4936123;29;20023;-80
2023/10/02 05:28:05;;;;;;;30.38;17.13;;;19.80;99.90;;;;;;4922048;29;20038;-80
2023/10/02 05:30:46;;;;;;;29.75;18.00;;;19.90;99.90;;;;;;4915756;29;20032;-79
2023/10/02 05:33:36;;;;;;;35.50;18.45;;;19.90;99.90;;;;;;4916944;29;20048;-78
2023/10/02 05:36:19;;;;;;;29.02;18.02;;;20.00;99.90;;;;;;4915751;29;20060;-77
2023/10/02 05:41:45;;;;;;;33.22;19.00;;;20.10;99.90;;;;;;4935831;29;20441;-77
2023/10/02 05:44:23;;;;;;;31.95;19.23;;;20.30;99.90;;;;;;4935708;29;20020;-77
2023/10/02 05:47:09;;;;;;;33.95;19.75;;;20.40;99.90;;;;;;4934660;29;20110;-79
2023/10/02 05:49:53;;;;;;;31.33;21.42;;;20.60;99.90;;;;;;4934679;29;20484;-80
2023/10/02 05:52:48;;;;;;;35.67;21.40;;;20.90;99.90;;;;;;4935752;29;20114;-81
2023/10/02 05:55:46;;;;;;;;;;;21.30;99.90;;;;;;4934584;29;20040;-80
2023/10/02 05:58:20;;;;;;;35.75;22.70;;;21.80;99.90;;;;;;4933222;29;19925;-80
2023/10/02 06:01:12;;;;;;;29.52;23.65;;;22.10;99.90;;;;;;4934561;29;20051;-81
2023/10/02 06:03:41;;;;;;;32.17;24.75;;;22.50;99.90;;;;;;4934344;29;20034;-80
2023/10/02 06:06:24;;;;;;;31.27;25.13;;;22.70;99.90;;;;;;4935440;29;20024;-81
2023/10/02 06:08:51;;;;;;;33.58;25.17;;;22.80;99.90;;;;;;4915254;29;20028;-80
2023/10/02 06:11:26;;;;;;;32.63;24.85;;;23.00;99.90;;;;;;4915217;29;20478;-80
2023/10/02 06:14:09;;;;;;;31.98;25.65;;;23.10;99.90;;;;;;4915437;29;20425;-80
2023/10/02 06:16:41;;;;;;;29.60;25.13;;;23.30;99.90;;;;;;4917565;29;20028;-81
2023/10/02 06:19:18;;;;;;;33.35;26.42;;;23.40;99.90;;;;;;4934331;29;20027;-80
2023/10/02 06:21:46;;;;;;;;;;;23.50;99.90;;;;;;4935942;29;20497;-80
2023/10/02 06:24:19;;;;;;;31.73;26.17;;;23.40;99.90;;;;;;4935479;29;20005;-80
2023/10/02 06:27:17;;;;;;;29.80;26.55;;;23.60;99.90;;;;;;4935417;29;20032;-80
2023/10/02 06:29:51;;;;;;;29.83;26.38;;;23.70;99.90;;;;;;4933916;29;20122;-81
2023/10/02 06:32:22;;;;;;;;;;;23.80;99.90;;;;;;4934659;29;20402;-79
2023/10/02 06:35:00;;;;;;;29.35;26.27;;;24.00;99.90;;;;;;4933970;29;20492;-80
2023/10/02 06:37:40;;;;;;;30.35;27.15;;;24.10;99.90;;;;;;4935263;29;20417;-80
2023/10/02 06:40:16;;;;;;;31.50;28.15;;;24.20;99.90;;;;;;4934866;29;20031;-80
2023/10/02 06:42:59;;;;;;;35.22;29.10;;;24.30;99.90;;;;;;4934095;29;20027;-79
2023/10/02 06:46:06;;;;;;;30.42;27.40;;;24.30;99.90;;;;;;4935546;29;20098;-80
2023/10/02 06:48:46;;;;;;;31.38;27.85;;;24.30;99.90;;;;;;4933998;29;20082;-80
2023/10/02 06:51:23;;;;;;;29.05;25.90;;;24.40;99.90;;;;;;4933791;29;20028;-80
2023/10/02 06:54:07;;;;;;;28.38;25.48;;;24.50;99.90;;;;;;4935016;29;20458;-80
2023/10/02 06:56:44;;;;;;;34.58;28.92;;;24.60;99.90;;;;;;4934483;29;20055;-80
2023/10/02 06:59:32;;;;;;;32.92;29.65;;;24.70;99.90;;;;;;4934021;29;20032;-80
2023/10/02 07:02:06;;;;;;;31.98;28.58;;;24.70;99.90;;;;;;4934050;29;20401;-80
2023/10/02 07:04:36;;;;;;;34.38;30.77;;;24.70;99.90;;;;;;4918110;29;20400;-80
2023/10/02 07:07:14;;;;;;;33.58;30.10;;;25.00;99.90;;;;;;4935048;29;20024;-79
2023/10/02 07:09:43;;;;;;;35.47;31.63;;;25.30;99.90;;;;;;4937144;29;20070;-80
2023/10/02 07:12:32;;;;;;;34.97;31.58;;;25.20;99.90;;;;;;4936493;29;20024;-80
2023/10/02 07:15:13;;;;;;;35.63;32.10;;;25.10;99.90;;;;;;4936950;29;20051;-80
2023/10/02 07:18:00;;;;;;;36.97;33.35;;;25.10;99.90;;;;;;4928228;29;20032;-80
2023/10/02 07:20:53;;;;;;;39.28;33.45;;;25.10;99.90;;;;;;4918019;29;20434;-80
2023/10/02 07:23:29;;;;;;;36.75;33.25;;;25.40;99.90;;;;;;4919244;29;20024;-80
2023/10/02 07:26:15;;;;;;;;;;;25.30;99.90;;;;;;4919639;29;20024;-80
2023/10/02 07:29:02;;;;;;;35.83;32.03;;;25.50;99.90;;;;;;4935327;29;19950;-80
2023/10/02 07:31:36;;;;;;;37.33;33.60;;;25.60;99.90;;;;;;4921154;29;20429;-79
2023/10/02 07:34:25;;;;;;;36.33;32.85;;;25.70;99.90;;;;;;4938056;29;20071;-80
2023/10/02 07:37:05;;;;;;;37.22;33.47;;;25.60;99.90;;;;;;4938009;29;20123;-80
2023/10/02 07:40:00;;;;;;;37.05;33.25;;;25.50;99.90;;;;;;4937905;29;20103;-80
2023/10/02 07:42:35;;;;;;;37.15;33.83;;;25.70;99.90;;;;;;4936915;29;20028;-81
2023/10/02 07:45:24;;;;;;;38.08;34.13;;;26.10;99.90;;;;;;4937967;29;20036;-80
2023/10/02 07:48:12;;;;;;;39.20;35.22;;;26.60;99.90;;;;;;4936604;29;20031;-80
2023/10/02 07:50:44;;;;;;;39.33;34.30;;;26.70;99.90;;;;;;4938808;29;20111;-80
2023/10/02 07:53:40;;;;;;;38.25;34.67;;;26.70;99.90;;;;;;4938117;29;20114;-80
2023/10/02 07:56:16;;;;;;;37.28;33.53;;;26.70;99.90;;;;;;4936778;29;20057;-80
2023/10/02 07:58:54;;;;;;;38.03;34.65;;;26.30;99.90;;;;;;4917296;29;20067;-80
2023/10/02 08:01:36;;;;;;;39.05;35.45;;;26.30;99.90;;;;;;4918639;29;20028;-79
2023/10/02 08:04:06;;;;;;;39.25;35.22;;;26.20;99.90;;;;;;4918649;29;20394;-80
2023/10/02 08:06:54;;;;;;;39.08;35.22;;;26.10;99.90;;;;;;4918539;29;20024;-82
2023/10/02 08:09:52;;;;;;;39.75;35.83;;;26.40;99.90;;;;;;4918294;29;20028;-80
2023/10/02 08:12:30;;;;;;;38.65;35.30;;;25.90;99.90;;;;;;4917186;29;20032;-80
2023/10/02 08:15:26;;;;;;;39.05;35.20;;;26.00;99.90;;;;;;4918293;29;20052;-80
2023/10/02 08:20:24;;;;;;;39.05;35.53;;;26.00;99.90;;;;;;4951315;28;20084;-81
2023/10/02 08:22:55;;;;;;;39.67;35.55;;;25.90;99.90;;;;;;4937247;29;20055;-80
2023/10/02 08:25:23;;;;;;;39.25;35.67;;;26.00;99.90;;;;;;4936021;29;20057;-79
2023/10/02 08:27:58;;;;;;;39.72;36.03;;;25.80;99.90;;;;;;4936798;29;20035;-79
2023/10/02 08:30:31;;;;;;;39.63;36.00;;;25.80;99.90;;;;;;4936884;29;20034;-79
2023/10/02 08:33:09;;;;;;;39.13;35.88;;;25.70;99.90;;;;;;4951593;29;20032;-81
2023/10/02 08:35:46;;;;;;;39.17;35.47;;;25.80;99.90;;;;;;4935922;29;20042;-81
2023/10/02 08:38:25;;;;;;;39.15;35.55;;;25.80;99.90;;;;;;4936316;29;20015;-82
2023/10/02 08:41:10;;;;;;;37.88;34.72;;;26.00;99.90;;;;;;4935807;29;20493;-80
2023/10/02 08:43:44;;;;;;;37.83;34.03;;;26.10;99.90;;;;;;4935702;29;20032;-82
2023/10/02 08:46:24;;;;;;;36.50;32.88;;;26.00;99.90;;;;;;4920345;29;20043;-80
2023/10/02 08:48:59;;;;;;;;;;;25.80;99.90;;;;;;4935921;29;20027;-80
2023/10/02 08:51:38;;;;;;;36.53;33.38;;;25.80;99.90;;;;;;4935428;29;19917;-80
2023/10/02 08:54:11;;;;;;;37.67;34.15;;;25.70;99.90;;;;;;4935348;29;20039;-80
2023/10/02 08:57:01;;;;;;;37.58;34.28;;;25.60;99.90;;;;;;4936231;29;20114;-80
2023/10/02 08:59:35;;;;;;;38.35;34.58;;;25.50;99.90;;;;;;4916429;29;20032;-81
2023/10/02 09:02:16;;;;;;;37.65;34.28;;;25.50;99.90;;;;;;4917600;29;20039;-81
2023/10/02 09:04:57;;;;;;;36.88;33.78;;;25.80;99.90;;;;;;4916270;29;20063;-81
2023/10/02 09:10:58;;;;;;;37.25;34.15;;;25.90;99.90;;;;;;4877372;29;20033;-81
2023/10/02 09:13:25;;;;;;;38.72;35.33;;;25.80;99.90;;;;;;4877646;29;20145;-81
2023/10/02 09:15:53;;;;;;;37.83;34.25;;;25.90;99.90;;;;;;4862167;29;20029;-79
2023/10/02 09:22:21;;;;;;;36.93;33.77;;;25.90;99.90;;;;;;4877470;29;20150;-80
2023/10/02 09:25:36;;;;;;;36.60;33.08;;;25.90;99.90;;;;;;4877547;29;20317;-80
2023/10/02 09:28:23;;;;;;;37.55;34.20;;;26.00;99.90;;;;;;4859062;29;20128;-80
2023/10/02 09:31:24;;;;;;;37.60;34.22;;;25.80;99.90;;;;;;4862316;29;20041;-81
2023/10/02 09:34:26;;;;;;;36.38;33.13;;;25.90;99.90;;;;;;4861784;29;20121;-80
2023/10/02 09:37:11;;;;;;;36.97;34.08;;;26.00;99.90;;;;;;4876993;29;20028;-80
2023/10/02 09:39:41;;;;;;;37.42;34.00;;;26.00;99.90;;;;;;4877142;29;20128;-79
2023/10/02 09:42:07;;;;;;;36.80;33.42;;;26.10;99.90;;;;;;4877254;29;20499;-79
2023/10/02 09:44:55;;;;;;;36.88;33.50;;;26.10;99.90;;;;;;4908097;29;20071;-87
2023/10/02 09:47:24;;;;;;;36.72;33.63;;;26.10;99.90;;;;;;4919957;29;20071;-87
2023/10/02 09:50:13;;;;;;;36.92;33.83;;;26.30;99.90;;;;;;4919943;29;20048;-88
2023/10/02 09:53:01;;;;;;;36.13;33.08;;;26.20;99.90;;;;;;4920091;29;20067;-86
2023/10/02 09:55:50;;;;;;;39.10;33.90;;;26.10;99.90;;;;;;4935439;29;20035;-86
2023/10/02 09:58:34;;;;;;;37.05;33.85;;;26.10;99.90;;;;;;4920045;29;20036;-87
2023/10/02 10:03:59;;;;;;;36.55;33.30;;;26.10;99.90;;;;;;4935430;29;20051;-87
2023/10/02 10:06:36;;;;;;;37.88;34.25;;;26.20;99.90;;;;;;4920097;29;20042;-85
2023/10/02 10:11:42;;;;;;;37.10;33.33;;;26.00;99.90;;;;;;4935436;29;20118;-88
2023/10/02 10:14:36;;;;;;;35.60;32.35;;;26.00;99.90;;;;;;4934987;29;20031;-89
2023/10/02 10:17:18;;;;;;;35.38;32.38;;;26.10;99.90;;;;;;4935542;29;20110;-80
2023/10/02 10:22:51;;;;;;;35.83;32.83;;;26.10;99.90;;;;;;4935280;29;20035;-80
2023/10/02 10:25:50;;;;;;;35.25;32.15;;;25.90;99.90;;;;;;4919235;29;20032;-81
2023/10/02 10:28:28;;;;;;;35.72;32.47;;;26.20;99.90;;;;;;4926610;29;20042;-81
2023/10/02 10:31:01;;;;;;;35.90;32.70;;;26.40;99.90;;;;;;4917173;29;20076;-78
2023/10/02 10:33:33;;;;;;;36.40;33.03;;;26.40;99.90;;;;;;4933580;29;20036;-79
2023/10/02 10:36:09;;;;;;;36.10;32.95;;;26.20;99.90;;;;;;4935412;29;20481;-79
2023/10/02 10:38:41;;;;;;;36.72;33.08;;;26.00;99.90;;;;;;4921289;29;20032;-79
2023/10/02 10:41:14;;;;;;;37.30;33.80;;;26.20;99.90;;;;;;4920523;29;20055;-79
2023/10/02 10:43:44;;;;;;;38.40;34.77;;;26.30;99.90;;;;;;4937104;29;20036;-79
2023/10/02 10:46:18;;;;;;;38.65;34.78;;;26.20;99.90;;;;;;4937836;29;20028;-79
2023/10/02 10:48:58;;;;;;;36.05;32.85;;;26.20;99.90;;;;;;4938696;29;20397;-79
2023/10/02 10:51:33;;;;;;;35.78;32.88;;;26.10;99.90;;;;;;4938946;29;20555;-79
2023/10/02 10:54:18;;;;;;;37.00;33.83;;;26.00;99.90;;;;;;4937275;29;20043;-79
2023/10/02 10:57:22;;;;;;;37.13;33.92;;;25.80;99.90;;;;;;4938727;29;20047;-78
2023/10/02 11:00:24;;;;;;;37.58;34.47;;;25.80;99.90;;;;;;4919502;29;20103;-78
2023/10/02 11:03:07;;;;;;;37.00;33.97;;;25.70;99.90;;;;;;4926019;29;20123;-78
2023/10/02 11:05:36;;;;;;;37.00;34.20;;;25.50;99.90;;;;;;4937556;29;20036;-77
2023/10/02 11:08:23;;;;;;;38.55;35.20;;;25.60;99.90;;;;;;4938468;29;20035;-79
2023/10/02 11:11:21;;;;;;;39.00;35.55;;;25.50;99.90;;;;;;4938553;29;20066;-78
2023/10/02 11:14:02;;;;;;;38.60;35.60;;;25.60;99.90;;;;;;4936416;29;20039;-80
2023/10/02 11:16:31;;;;;;;39.22;35.80;;;25.80;99.90;;;;;;4918309;29;20043;-80
2023/10/02 11:24:54;;;;;;;37.88;34.65;;;26.00;99.90;;;;;;4917804;29;20035;-82
2023/10/02 11:27:22;;;;;;;37.45;34.25;;;26.00;99.90;;;;;;4920051;29;20502;-83
2023/10/02 11:30:01;;;;;;;38.13;34.97;;;26.00;99.90;;;;;;4921307;29;20031;-81
2023/10/02 11:33:05;;;;;;;38.13;34.92;;;26.00;99.90;;;;;;4936562;29;20042;-83
2023/10/02 11:35:38;;;;;;;38.03;34.60;;;26.00;99.90;;;;;;4938466;29;20118;-82
2023/10/02 11:38:09;;;;;;;37.83;34.40;;;25.70;99.90;;;;;;4921151;29;20182;-82
2023/10/02 11:40:37;;;;;;;37.53;34.30;;;25.80;99.90;;;;;;4921058;29;20031;-82
2023/10/02 11:43:03;;;;;;;36.28;33.13;;;26.00;99.90;;;;;;4936473;29;20046;-82
2023/10/02 11:45:33;;;;;;;36.13;33.25;;;26.10;99.90;;;;;;4936678;29;20032;-81
2023/10/02 11:48:00;;;;;;;35.53;31.95;;;25.80;99.90;;;;;;4929533;29;20088;-81
2023/10/02 11:50:26;;;;;;;35.95;32.15;;;25.70;99.90;;;;;;4901953;29;20072;-81
2023/10/02 13:06:13;;;;;;;;;;;;;;;;;;;;;
2023/10/02 13:11:38;;;;;;;35.78;32.55;;;25.30;99.90;;;;;;4938444;29;20139;-93
2023/10/02 13:14:25;;;;;;;35.75;32.22;;;25.30;99.90;;;;;;4921825;23;20052;-92
2023/10/02 13:17:07;;;;;;;35.80;32.40;;;25.30;99.90;;;;;;4887897;29;20115;-81
2023/10/02 13:19:34;;;;;;;35.50;32.30;;;25.50;99.90;;;;;;4884817;29;20056;-86
2023/10/02 13:22:01;;;;;;;34.22;31.13;;;25.40;99.90;;;;;;4883425;29;20035;-87
2023/10/02 13:24:28;;;;;;;35.35;31.90;;;25.60;99.90;;;;;;4898894;29;20041;-88
2023/10/02 13:26:55;;;;;;;34.88;31.77;;;25.60;99.90;;;;;;4882830;29;20478;-87
2023/10/02 13:29:23;;;;;;;35.15;31.88;;;25.40;99.90;;;;;;4882945;29;20157;-88
2023/10/02 13:31:51;;;;;;;35.50;31.85;;;25.20;99.90;;;;;;4882635;29;20025;-84
2023/10/02 13:34:20;;;;;;;35.17;31.77;;;25.10;99.90;;;;;;4881773;29;20048;-84
2023/10/02 13:36:47;;;;;;;34.42;31.38;;;25.10;99.90;;;;;;4897384;29;20084;-83
2023/10/02 13:39:17;;;;;;;35.15;32.03;;;25.20;99.90;;;;;;4898637;29;20210;-82
2023/10/02 13:42:02;;;;;;;35.00;31.88;;;25.20;99.90;;;;;;4898705;29;20035;-89
2023/10/02 13:44:28;;;;;;;34.70;31.60;;;25.10;99.90;;;;;;4884671;29;20434;-90
2023/10/02 13:47:17;;;;;;;35.78;32.60;;;25.10;99.90;;;;;;4882779;29;20565;-91
2023/10/02 13:49:54;;;;;;;34.40;31.30;;;25.10;99.90;;;;;;4898204;29;20124;-91
2023/10/02 13:52:51;;;;;;;35.08;31.88;;;25.00;99.90;;;;;;4898160;29;20028;-92
2023/10/02 13:55:27;;;;;;;34.25;31.05;;;25.00;99.90;;;;;;4898515;29;20625;-92
2023/10/02 13:57:59;;;;;;;34.20;30.92;;;25.00;99.90;;;;;;4883090;29;20040;-90
2023/10/02 14:00:26;;;;;;;34.20;31.25;;;25.00;99.90;;;;;;4898421;29;20040;-91
2023/10/02 14:02:59;;;;;;;34.92;31.50;;;25.00;99.90;;;;;;4898170;29;20481;-91
2023/10/02 14:05:50;;;;;;;34.95;31.75;;;25.00;99.90;;;;;;4898455;29;20202;-92
2023/10/02 14:08:19;;;;;;;35.80;32.33;;;25.00;99.90;;;;;;4879876;29;20141;-91
2023/10/02 14:10:47;;;;;;;35.03;31.73;;;25.00;99.90;;;;;;4882170;29;20032;-91
2023/10/02 14:13:21;;;;;;;35.33;32.25;;;25.20;99.90;;;;;;4882427;29;20033;-92
2023/10/02 14:15:56;;;;;;;35.88;32.50;;;25.20;99.90;;;;;;4882380;29;20524;-91
2023/10/02 14:18:26;;;;;;;35.72;32.85;;;25.20;99.90;;;;;;4884260;29;20064;-91
2023/10/02 14:21:14;;;;;;;36.40;33.10;;;25.20;99.90;;;;;;4886216;29;20037;-92
2023/10/02 14:23:43;;;;;;;36.28;32.97;;;25.00;99.90;;;;;;4885951;29;20059;-91
2023/10/02 14:26:16;;;;;;;36.45;33.05;;;25.00;99.90;;;;;;4886027;29;20033;-90
2023/10/02 14:28:46;;;;;;;35.30;32.03;;;25.10;99.90;;;;;;4901979;29;20032;-90
2023/10/02 14:31:31;;;;;;;34.88;31.45;;;25.00;99.90;;;;;;4886646;29;20115;-90
2023/10/02 14:34:23;;;;;;;33.55;30.65;;;25.00;99.90;;;;;;4902013;29;20512;-92
2023/10/02 14:36:50;;;;;;;35.30;31.38;;;24.90;99.90;;;;;;4901336;29;20466;-92
2023/10/02 14:39:16;;;;;;;34.42;31.17;;;24.80;99.90;;;;;;4885724;29;20025;-92
2023/10/02 14:41:43;;;;;;;34.95;31.20;;;24.80;99.90;;;;;;4901456;29;20517;-91
2023/10/02 14:44:10;;;;;;;34.42;30.77;;;24.70;99.90;;;;;;4882629;29;20372;-93
2023/10/02 14:46:39;;;;;;;33.78;30.45;;;24.60;99.90;;;;;;4882628;29;20296;-93
2023/10/02 14:49:11;;;;;;;34.17;30.90;;;24.60;99.90;;;;;;4867057;29;20032;-88
2023/10/02 14:51:37;;;;;;;33.78;30.65;;;24.60;99.90;;;;;;4882358;29;20037;-86
2023/10/02 14:54:03;;;;;;;35.72;32.28;;;24.60;99.90;;;;;;4866366;29;20177;-86
2023/10/02 14:56:30;;;;;;;34.10;31.00;;;24.50;99.90;;;;;;4882113;29;20040;-86
2023/10/02 14:58:56;;;;;;;35.35;31.65;;;24.50;99.90;;;;;;4866675;29;20105;-86
2023/10/02 15:01:23;;;;;;;34.78;31.30;;;24.50;99.90;;;;;;4904532;29;20119;-86
2023/10/02 15:03:51;;;;;;;33.92;30.67;;;24.50;99.90;;;;;;4885040;29;20084;-86
2023/10/02 15:06:17;;;;;;;35.28;31.75;;;24.40;99.90;;;;;;4884932;29;20112;-86
2023/10/02 15:08:45;;;;;;;34.67;31.50;;;24.30;99.90;;;;;;4901134;29;20036;-86
2023/10/02 15:11:18;;;;;;;33.80;30.70;;;24.40;99.90;;;;;;4900647;29;20032;-87
2023/10/02 15:13:45;;;;;;;34.63;31.10;;;24.40;99.90;;;;;;4884692;29;20128;-87
2023/10/02 15:16:12;;;;;;;33.67;30.67;;;24.40;99.90;;;;;;4904217;29;20048;-88
2023/10/02 15:18:39;;;;;;;33.58;30.45;;;24.30;99.90;;;;;;4904733;29;20035;-88
2023/10/02 15:21:09;;;;;;;33.42;30.15;;;24.30;99.90;;;;;;4904040;29;20112;-88
2023/10/02 15:23:37;;;;;;;34.10;30.92;;;24.20;99.90;;;;;;4919231;29;20043;-88
2023/10/02 15:26:04;;;;;;;34.15;30.55;;;24.10;99.90;;;;;;4919558;29;20047;-87